»·PEaware :: EVIL44 KEND-KEND

EVIL44 :: KEND-KEND

FLIGHT INFORMATION

Flight Status: Arrived
Operator: Unknown
More flights by this operator :: More flights under this callsign
Pilot: T. R. (21364)
Aircraft: BEECH AIRCRAFT T-6A TEXAN
(TEX2)
More flights by this aircraft type
Origin: KEND Vance AFB
United States
Destination: KEND Vance AFB
United States
More flights between these airports :: More routes between these airports
Route: +PNC F22 END8
File this flight plan on PilotEdge
Remarks:
Altitude:
(Current/Filed)
0ft
Speed:
(Current/Filed)
0kts
Departed: 11-Sep-20 12:16 PM
Arrived: 11-Sep-20 01:03 PM
Distance/Time
Traveled:
0nm/0:47
Distance/Time
To Go:
Arrived

Flight Plot

Page will automatically refresh every two minutes.

Flight plan parsing failed; only flown route is shown


Map Options




Map Legend


Flown Route
Filed Route
Departure Airport
Arrival Airport
Navaid (VOR, NDB)
Fix

Horizontal Profiles

Position Reports

Time Latitude Longitude Heading Altitude Ground
Speed
11-Sep-20 12:06 36.338189 -97.908189 359 1291ft 0kts
11-Sep-20 12:07 36.338189 -97.908189 359 1291ft 0kts
11-Sep-20 12:08 36.338189 -97.908189 359 1291ft 0kts
11-Sep-20 12:09 36.338189 -97.908189 359 1291ft 0kts
11-Sep-20 12:10 36.338390 -97.909002 272 1290ft 7kts
11-Sep-20 12:11 36.343328 -97.909170 358 1283ft 21kts
11-Sep-20 12:12 36.347177 -97.909836 268 1279ft 9kts
11-Sep-20 12:13 36.346986 -97.910191 216 1279ft 0kts
11-Sep-20 12:14 36.346820 -97.910382 232 1279ft 10kts
11-Sep-20 12:15 36.319885 -97.910330 179 1908ft 182kts
11-Sep-20 12:16 36.264266 -97.902055 173 4442ft 204kts
11-Sep-20 12:17 36.223206 -97.851794 68 5038ft 277kts
11-Sep-20 12:18 36.282104 -97.781761 41 4953ft 287kts
11-Sep-20 12:19 36.336672 -97.706368 51 5186ft 288kts
11-Sep-20 12:20 36.388165 -97.627519 54 5329ft 290kts
11-Sep-20 12:21 36.438177 -97.545682 51 5011ft 294kts
11-Sep-20 12:22 36.486378 -97.464912 51 5089ft 287kts
11-Sep-20 12:23 36.535793 -97.385412 44 5506ft 283kts
11-Sep-20 12:24 36.591940 -97.309354 47 5321ft 292kts
11-Sep-20 12:25 36.650455 -97.236671 48 5564ft 286kts
11-Sep-20 12:26 36.697243 -97.148277 56 4244ft 303kts
11-Sep-20 12:27 36.735173 -97.070250 359 2765ft 216kts
11-Sep-20 12:28 36.758617 -97.092461 233 1601ft 120kts
11-Sep-20 12:29 36.732171 -97.099601 179 1136ft 120kts
11-Sep-20 12:30 36.745698 -97.079858 4 2260ft 173kts
11-Sep-20 12:31 36.748649 -97.098672 192 1174ft 106kts
11-Sep-20 12:32 36.729495 -97.099610 196 1006ft 21kts
11-Sep-20 12:33 36.730354 -97.100973 357 1002ft 0kts
11-Sep-20 12:34 36.731993 -97.100910 357 1005ft 12kts
11-Sep-20 12:35 36.734620 -97.100534 85 1006ft 0kts
11-Sep-20 12:36 36.707722 -97.107240 204 2185ft 168kts
11-Sep-20 12:37 36.659598 -97.129756 202 4655ft 212kts
11-Sep-20 12:38 36.595516 -97.157143 203 4546ft 244kts
11-Sep-20 12:39 36.532040 -97.190039 207 4446ft 239kts
11-Sep-20 12:40 36.481607 -97.241661 242 4333ft 230kts
11-Sep-20 12:41 36.437574 -97.274571 188 2806ft 122kts
11-Sep-20 12:42 36.406477 -97.277202 180 1467ft 114kts
11-Sep-20 12:43 36.374578 -97.276594 168 1423ft 160kts
11-Sep-20 12:44 36.403175 -97.257562 352 1747ft 134kts
11-Sep-20 12:45 36.391261 -97.277241 179 982ft 89kts
11-Sep-20 12:46 36.363324 -97.293904 264 3206ft 167kts
11-Sep-20 12:47 36.361562 -97.359249 267 4683ft 207kts
11-Sep-20 12:48 36.360041 -97.432869 268 4486ft 210kts
11-Sep-20 12:49 36.359936 -97.507726 268 4324ft 217kts
11-Sep-20 12:50 36.357076 -97.581870 268 6369ft 204kts
11-Sep-20 12:51 36.353757 -97.666694 268 6589ft 249kts
11-Sep-20 12:52 36.368288 -97.755192 276 6056ft 248kts
11-Sep-20 12:53 36.411677 -97.805773 354 5501ft 252kts
11-Sep-20 12:54 36.482802 -97.816339 326 3712ft 265kts
11-Sep-20 12:55 36.487300 -97.891245 233 2254ft 206kts
11-Sep-20 12:56 36.434253 -97.907653 185 2403ft 204kts
11-Sep-20 12:57 36.376583 -97.909717 185 2364ft 205kts
11-Sep-20 12:58 36.349185 -97.897439 9 2313ft 119kts
11-Sep-20 12:59 36.344796 -97.911037 179 1281ft 77kts
11-Sep-20 13:00 36.343175 -97.893797 2 2367ft 138kts
11-Sep-20 13:01 36.345435 -97.911028 181 1286ft 85kts
11-Sep-20 13:02 36.333618 -97.910291 56 1291ft 18kts
11-Sep-20 13:04 36.333634 -97.909960 250 1291ft 0kts
11-Sep-20 13:05 36.333634 -97.909960 250 1291ft 0kts
11-Sep-20 13:06 36.333634 -97.909960 250 1291ft 0kts
11-Sep-20 13:07 36.333634 -97.909960 250 1291ft 0kts
11-Sep-20 13:08 36.333634 -97.909960 250 1291ft 0kts
11-Sep-20 13:09 36.333634 -97.909960 250 1291ft 0kts
11-Sep-20 13:10 36.333634 -97.909960 250 1291ft 0kts
11-Sep-20 13:11 36.333634 -97.909960 250 1291ft 0kts
11-Sep-20 13:12 36.333634 -97.909960 250 1291ft 0kts
11-Sep-20 13:13 36.333634 -97.909960 250 1291ft 0kts
11-Sep-20 13:14 36.333634 -97.909960 250 1291ft 0kts
11-Sep-20 13:15 36.333634 -97.909960 250 1291ft 0kts
11-Sep-20 13:16 36.333634 -97.909960 250 1291ft 0kts
11-Sep-20 13:17 36.333634 -97.909960 250 1291ft 0kts

Navigation Log

Ident Type
Flight plan parsing failed, navigation log unavailable